createdAt,value
2023-05-05T00:01:07.906Z,58.62
2023-05-05T00:06:11.109Z,57.69
2023-05-05T00:11:13.968Z,58.56
2023-05-05T00:16:17.590Z,58.95
2023-05-05T00:21:20.595Z,59.23
2023-05-05T00:26:23.532Z,59.21
2023-05-05T00:31:27.057Z,59.04
2023-05-05T00:36:30.595Z,59.72
2023-05-05T00:41:33.530Z,59.70
2023-05-05T00:46:36.625Z,59.47
2023-05-05T00:51:39.461Z,59.50
2023-05-05T00:56:42.392Z,59.95
2023-05-05T01:01:46.292Z,60.33
2023-05-05T01:07:10.674Z,61.15
2023-05-05T01:12:37.732Z,61.59
2023-05-05T01:17:47.658Z,61.38
2023-05-05T01:23:01.504Z,61.57
2023-05-05T01:28:31.486Z,61.58
2023-05-05T01:33:37.879Z,62.19
2023-05-05T01:38:42.578Z,62.24
2023-05-05T01:43:48.553Z,62.45
2023-05-05T01:48:52.113Z,62.79
2023-05-05T01:54:00.176Z,62.95
2023-05-05T01:59:03.149Z,62.96
2023-05-05T02:04:06.343Z,63.38
2023-05-05T02:09:12.295Z,62.98
2023-05-05T02:14:15.243Z,62.98
2023-05-05T02:19:19.289Z,63.34
2023-05-05T02:24:22.181Z,63.84
2023-05-05T02:30:07.432Z,63.87
2023-05-05T02:35:21.096Z,64.00
2023-05-05T02:40:24.629Z,63.51
2023-05-05T02:45:27.474Z,63.43
2023-05-05T02:50:31.973Z,63.27
2023-05-05T02:55:43.841Z,63.08
2023-05-05T03:01:22.215Z,63.01
2023-05-05T03:06:25.335Z,63.10
2023-05-05T03:11:33.238Z,62.49
2023-05-05T03:16:36.979Z,62.69
2023-05-05T03:21:40.650Z,62.49
2023-05-05T03:26:44.212Z,62.53
2023-05-05T03:31:47.291Z,62.14
2023-05-05T03:36:50.125Z,61.94
2023-05-05T03:41:53.073Z,62.24
2023-05-05T03:46:56.016Z,62.02
2023-05-05T03:51:58.975Z,62.11
2023-05-05T03:57:02.568Z,61.69
2023-05-05T04:02:24.064Z,61.39
2023-05-05T04:07:28.257Z,61.17
2023-05-05T04:12:31.112Z,61.43
2023-05-05T04:17:34.106Z,61.17
2023-05-05T04:22:37.150Z,61.31
2023-05-05T04:27:40.108Z,60.94
2023-05-05T04:32:43.103Z,61.20
2023-05-05T04:37:46.183Z,60.30
2023-05-05T04:42:49.146Z,59.22
2023-05-05T04:47:52.085Z,59.46
2023-05-05T04:52:54.951Z,59.66
2023-05-05T04:57:57.958Z,59.98
2023-05-05T05:03:01.036Z,58.98
2023-05-05T05:08:04.429Z,58.48
2023-05-05T05:13:07.856Z,57.87
2023-05-05T05:18:10.771Z,57.09
2023-05-05T05:23:13.986Z,56.36
2023-05-05T05:28:16.916Z,55.71
2023-05-05T05:33:20.083Z,55.26
2023-05-05T05:38:23.121Z,55.12
2023-05-05T05:43:25.994Z,54.21
2023-05-05T05:48:29.461Z,54.00
2023-05-05T05:53:32.862Z,53.60
2023-05-05T05:58:35.810Z,53.00
2023-05-05T06:03:38.721Z,52.45
2023-05-05T06:08:41.603Z,52.20
2023-05-05T06:13:44.456Z,51.57
2023-05-05T06:18:47.579Z,51.55
2023-05-05T06:23:51.054Z,50.65
2023-05-05T06:28:53.985Z,49.67
2023-05-05T06:33:56.929Z,48.51
2023-05-05T06:38:59.885Z,47.51
2023-05-05T06:44:02.859Z,47.37
2023-05-05T06:49:05.678Z,46.23
2023-05-05T06:54:08.673Z,45.73
2023-05-05T06:59:12.120Z,45.06
2023-05-05T07:04:15.047Z,43.32
2023-05-05T07:09:18.728Z,42.77
2023-05-05T07:14:24.402Z,42.76
2023-05-05T07:19:27.572Z,41.71
2023-05-05T07:24:30.566Z,41.51
2023-05-05T07:29:33.531Z,40.91
2023-05-05T07:34:38.164Z,39.16
2023-05-05T07:39:41.472Z,39.78
2023-05-05T07:44:44.371Z,39.69
2023-05-05T07:49:47.325Z,38.62
2023-05-05T07:54:50.426Z,39.18
2023-05-05T07:59:53.326Z,39.29
2023-05-05T08:04:56.172Z,39.06
2023-05-05T08:09:59.051Z,38.54
2023-05-05T08:15:02.057Z,38.02
2023-05-05T08:20:05.733Z,37.19
2023-05-05T08:25:11.251Z,37.78
2023-05-05T08:30:14.353Z,38.08
2023-05-05T08:35:18.085Z,37.86
2023-05-05T08:40:22.171Z,37.39
2023-05-05T08:45:25.248Z,37.28
2023-05-05T08:50:29.257Z,37.72
2023-05-05T08:55:35.463Z,37.67
2023-05-05T09:00:39.420Z,37.82
2023-05-05T09:05:45.507Z,37.55
2023-05-05T09:10:49.151Z,35.99
2023-05-05T09:15:53.639Z,35.43
2023-05-05T09:20:58.827Z,34.49
2023-05-05T09:26:08.060Z,34.89
2023-05-05T09:31:16.097Z,33.91
2023-05-05T09:36:19.332Z,33.69
2023-05-05T09:41:37.760Z,32.74
2023-05-05T09:46:52.848Z,32.54
2023-05-05T09:51:57.426Z,32.01
2023-05-05T09:57:00.372Z,32.11
2023-05-05T10:02:13.358Z,31.57
2023-05-05T10:07:26.800Z,29.40
2023-05-05T10:12:29.773Z,29.43
2023-05-05T10:17:36.525Z,28.78
2023-05-05T10:22:39.454Z,28.69
2023-05-05T10:27:54.869Z,27.40
2023-05-05T10:33:35.218Z,26.11
2023-05-05T10:38:38.264Z,25.50
2023-05-05T10:43:41.751Z,26.16
2023-05-05T10:48:56.729Z,25.60
2023-05-05T10:54:47.561Z,25.07
2023-05-05T10:59:50.598Z,24.97
2023-05-05T11:05:18.071Z,24.80
2023-05-05T11:10:23.113Z,25.50
2023-05-05T11:15:31.661Z,25.49
2023-05-05T11:20:40.395Z,25.19
2023-05-05T11:25:44.699Z,25.35
2023-05-05T11:30:57.832Z,23.54
2023-05-05T11:36:12.154Z,21.55
2023-05-05T11:41:52.385Z,21.33
2023-05-05T11:47:00.178Z,21.70
2023-05-05T11:52:03.798Z,21.44
2023-05-05T11:57:08.347Z,20.90
2023-05-05T12:02:11.207Z,21.55
2023-05-05T12:07:28.156Z,22.91
2023-05-05T12:12:40.815Z,22.82
2023-05-05T12:17:46.256Z,21.63
2023-05-05T12:22:49.191Z,21.60
2023-05-05T12:27:53.048Z,22.85
2023-05-05T12:33:06.779Z,22.06
2023-05-05T12:38:10.489Z,22.76
2023-05-05T12:43:27.878Z,23.38
2023-05-05T12:48:31.051Z,22.88
2023-05-05T12:53:33.980Z,23.29
2023-05-05T12:58:49.194Z,22.63
2023-05-05T13:04:14.035Z,24.42
2023-05-05T13:09:30.692Z,25.67
2023-05-05T13:14:33.730Z,26.46
2023-05-05T13:19:42.016Z,27.05
2023-05-05T13:24:51.623Z,27.90
2023-05-05T13:29:55.931Z,28.30
2023-05-05T13:34:58.863Z,28.10
2023-05-05T13:40:01.714Z,27.48
2023-05-05T13:45:05.571Z,26.34
2023-05-05T13:50:08.883Z,23.09
2023-05-05T13:55:11.768Z,21.22
2023-05-05T14:00:16.070Z,19.69
2023-05-05T14:05:19.391Z,19.45
2023-05-05T14:10:22.432Z,17.86
2023-05-05T14:15:25.349Z,17.14
2023-05-05T14:20:28.320Z,19.47
2023-05-05T14:25:31.355Z,21.04
2023-05-05T14:30:34.338Z,22.99
2023-05-05T14:35:37.574Z,24.65
2023-05-05T14:40:40.748Z,25.03
2023-05-05T14:45:44.326Z,26.67
2023-05-05T14:50:48.504Z,27.94
2023-05-05T14:55:51.422Z,28.77
2023-05-05T15:00:54.789Z,29.63
2023-05-05T15:05:57.820Z,29.65
2023-05-05T15:11:00.908Z,29.65
2023-05-05T15:16:04.108Z,29.73
2023-05-05T15:21:07.038Z,29.81
2023-05-05T15:26:09.956Z,30.23
2023-05-05T15:31:13.005Z,30.40
2023-05-05T15:36:17.596Z,30.39
2023-05-05T15:41:20.602Z,30.65
2023-05-05T15:46:23.632Z,30.80
2023-05-05T15:51:26.612Z,31.56
2023-05-05T15:56:29.748Z,32.24
2023-05-05T16:01:33.635Z,31.67
2023-05-05T16:06:36.788Z,31.95
2023-05-05T16:11:39.761Z,32.80
2023-05-05T16:16:42.784Z,33.33
2023-05-05T16:21:46.275Z,34.16
2023-05-05T16:26:49.121Z,34.62
2023-05-05T16:31:52.028Z,35.22
2023-05-05T16:36:54.984Z,35.29
2023-05-05T16:41:57.800Z,35.52
2023-05-05T16:47:01.196Z,36.00
2023-05-05T16:52:04.306Z,36.18
2023-05-05T16:57:07.187Z,36.14
2023-05-05T17:02:10.115Z,36.57
2023-05-05T17:07:13.065Z,36.26
2023-05-05T17:12:15.935Z,36.68
2023-05-05T17:17:18.784Z,37.55
2023-05-05T17:22:21.945Z,37.91
2023-05-05T17:27:24.948Z,38.78
2023-05-05T17:32:27.956Z,39.03
2023-05-05T17:37:31.284Z,39.50
2023-05-05T17:42:34.253Z,39.55
2023-05-05T17:47:37.415Z,40.02
2023-05-05T17:52:41.171Z,40.77
2023-05-05T17:57:44.095Z,41.40
2023-05-05T18:02:47.006Z,41.72
2023-05-05T18:07:50.255Z,42.15
2023-05-05T18:12:53.237Z,42.75
2023-05-05T18:17:56.255Z,43.39
2023-05-05T18:22:59.157Z,44.20
2023-05-05T18:28:02.064Z,44.33
2023-05-05T18:33:05.154Z,44.88
2023-05-05T18:38:08.116Z,45.54
2023-05-05T18:43:11.216Z,46.66
2023-05-05T18:48:14.083Z,46.70
2023-05-05T18:53:17.788Z,47.06
2023-05-05T18:58:21.404Z,47.35
2023-05-05T19:03:24.266Z,47.82
2023-05-05T19:08:27.235Z,48.15
2023-05-05T19:13:30.169Z,48.55
2023-05-05T19:18:33.654Z,48.91
2023-05-05T19:23:38.175Z,48.87
2023-05-05T19:28:41.093Z,49.40
2023-05-05T19:33:45.709Z,49.61
2023-05-05T19:38:48.645Z,50.08
2023-05-05T19:43:51.812Z,50.57
2023-05-05T19:48:54.732Z,50.76
2023-05-05T19:53:57.585Z,51.08
2023-05-05T19:59:02.015Z,51.51
2023-05-05T20:04:04.958Z,51.66
2023-05-05T20:09:08.070Z,51.90
2023-05-05T20:14:10.916Z,52.32
2023-05-05T20:19:14.014Z,52.58
2023-05-05T20:24:17.353Z,52.62
2023-05-05T20:29:20.337Z,53.30
2023-05-05T20:34:25.190Z,53.16
2023-05-05T20:39:28.146Z,53.40
2023-05-05T20:44:31.483Z,53.85
2023-05-05T20:49:34.746Z,53.80
2023-05-05T20:54:39.055Z,53.76
2023-05-05T20:59:41.946Z,54.56
2023-05-05T21:04:44.963Z,54.45
2023-05-05T21:09:47.952Z,54.40
2023-05-05T21:14:51.018Z,55.09
2023-05-05T21:19:53.945Z,55.52
2023-05-05T21:25:16.949Z,55.52
2023-05-05T21:30:19.780Z,55.48
2023-05-05T21:35:22.625Z,55.28
2023-05-05T21:40:26.112Z,55.65
2023-05-05T21:45:29.135Z,55.81
2023-05-05T21:50:32.121Z,56.39
2023-05-05T21:55:35.272Z,56.49
2023-05-05T22:00:38.150Z,56.35
2023-05-05T22:05:41.187Z,56.42
2023-05-05T22:10:44.089Z,56.86
2023-05-05T22:15:47.620Z,56.90
2023-05-05T22:20:51.433Z,57.08
2023-05-05T22:25:54.458Z,56.96
2023-05-05T22:30:57.442Z,57.72
2023-05-05T22:36:00.787Z,57.38
2023-05-05T22:41:03.815Z,57.76
2023-05-05T22:46:06.751Z,58.43
2023-05-05T22:51:09.589Z,57.97
2023-05-05T22:56:12.528Z,58.79
2023-05-05T23:01:15.522Z,59.07
2023-05-05T23:06:18.568Z,59.13
2023-05-05T23:11:21.500Z,59.66
2023-05-05T23:16:24.434Z,60.20
2023-05-05T23:21:29.212Z,60.56
2023-05-05T23:26:32.311Z,61.41
2023-05-05T23:31:35.173Z,61.31
2023-05-05T23:36:38.118Z,62.09
2023-05-05T23:41:40.972Z,61.97
2023-05-05T23:46:43.857Z,62.30
2023-05-05T23:51:46.767Z,62.53
2023-05-05T23:56:49.601Z,62.49
